Station History

Weather Underground - logo

Station Historical Data
Daily Summary for February 18, 2018 Units:  Both    English   Metric
« Previous Day
Next Day »
Daily Weekly Monthly Yearly Custom
  High: Low: Average:
Temperature: 68.8 °F /  20.4 °C 39.0 °F /  3.9 °C 54 °F /  12.2 °C
Dew Point: 41.2 °F /  5.1 °C 32.6 °F /  0.3 °C 37.2 °F /  2.9 °C
Humidity: 86 % 33 % 56 %
Wind Speed: 12.7 mph /  20.4 km/h - 3.5 mph /  5.6 km/h
Wind Gust: 12.7 mph /  20.4 km/h - -
Wind:- - WNW
Pressure: 30.01 in /  1016.1 hPa 29.82 in /  1009.7 hPa -
Precipitation: 0.00 in /  0 mm    
Historical Graphs
 
 
Tabular Data for February 18, 2018
Time Temperature Dew Point Pressure Wind Wind Speed Wind Gust Humidity Rainfall Rate (Hourly)
00:01 43.2 °F /  6.2 °C 37.1 °F /  2.8 °C 30.01 in /  1016.1 hPa Calm     79 % 0.00 in /  0 mm
00:06 43.1 °F /  6.2 °C 37.0 °F /  2.8 °C 30.01 in /  1016.1 hPa Calm     79 % 0.00 in /  0 mm
00:11 42.9 °F /  6.1 °C 36.8 °F /  2.7 °C 30.01 in /  1016.1 hPa Calm     79 % 0.00 in /  0 mm
00:16 42.6 °F /  5.9 °C 36.5 °F /  2.5 °C 30.01 in /  1016.1 hPa Calm     79 % 0.00 in /  0 mm
00:21 42.2 °F /  5.7 °C 36.5 °F /  2.5 °C 30.01 in /  1016.1 hPa Calm     80 % 0.00 in /  0 mm
00:26 41.9 °F /  5.5 °C 36.5 °F /  2.5 °C 30.01 in /  1016.1 hPa Calm     81 % 0.00 in /  0 mm
00:31 42.1 °F /  5.6 °C 37.3 °F /  2.9 °C 30.01 in /  1016.1 hPa Calm     83 % 0.00 in /  0 mm
00:37 42.0 °F /  5.6 °C 36.6 °F /  2.6 °C 30.00 in /  1015.8 hPa Calm     81 % 0.00 in /  0 mm
00:42 41.8 °F /  5.4 °C 37.0 °F /  2.8 °C 30.00 in /  1015.8 hPa Calm     83 % 0.00 in /  0 mm
00:47 41.5 °F /  5.3 °C 36.4 °F /  2.4 °C 30.00 in /  1015.8 hPa Calm     82 % 0.00 in /  0 mm
00:52 41.3 °F /  5.2 °C 36.5 °F /  2.5 °C 30.00 in /  1015.8 hPa Calm     83 % 0.00 in /  0 mm
00:57 41.5 °F /  5.3 °C 37.0 °F /  2.8 °C 30.00 in /  1015.8 hPa Calm     84 % 0.00 in /  0 mm
01:02 41.6 °F /  5.3 °C 36.8 °F /  2.7 °C 30.00 in /  1015.8 hPa Calm     83 % 0.00 in /  0 mm
01:07 41.7 °F /  5.4 °C 36.9 °F /  2.7 °C 30.00 in /  1015.8 hPa Calm     83 % 0.00 in /  0 mm
01:12 41.6 °F /  5.3 °C 36.5 °F /  2.5 °C 30.00 in /  1015.8 hPa Calm     82 % 0.00 in /  0 mm
01:17 41.3 °F /  5.2 °C 36.2 °F /  2.3 °C 30.00 in /  1015.8 hPa Calm     82 % 0.00 in /  0 mm
01:22 41.1 °F /  5.1 °C 36.3 °F /  2.4 °C 30.00 in /  1015.8 hPa Calm     83 % 0.00 in /  0 mm
01:27 40.9 °F /  4.9 °C 36.1 °F /  2.3 °C 30.00 in /  1015.8 hPa Calm     83 % 0.00 in /  0 mm
01:32 40.8 °F /  4.9 °C 36.0 °F /  2.2 °C 30.00 in /  1015.8 hPa Calm     83 % 0.00 in /  0 mm
01:37 40.6 °F /  4.8 °C 35.8 °F /  2.1 °C 30.00 in /  1015.8 hPa Calm     83 % 0.00 in /  0 mm
01:42 40.6 °F /  4.8 °C 36.1 °F /  2.3 °C 30.00 in /  1015.8 hPa Calm     84 % 0.00 in /  0 mm
01:47 40.8 °F /  4.9 °C 36.3 °F /  2.4 °C 30.00 in /  1015.8 hPa Calm     84 % 0.00 in /  0 mm
01:52 41.0 °F /  5 °C 36.5 °F /  2.5 °C 30.00 in /  1015.8 hPa Calm     84 % 0.00 in /  0 mm
01:58 41.3 °F /  5.2 °C 36.8 °F /  2.7 °C 30.00 in /  1015.8 hPa Calm     84 % 0.00 in /  0 mm
02:03 41.7 °F /  5.4 °C 36.9 °F /  2.7 °C 30.00 in /  1015.8 hPa Calm     83 % 0.00 in /  0 mm
02:08 41.7 °F /  5.4 °C 36.6 °F /  2.6 °C 29.99 in /  1015.5 hPa Calm     82 % 0.00 in /  0 mm
02:13 41.4 °F /  5.2 °C 36.6 °F /  2.6 °C 29.99 in /  1015.5 hPa Calm     83 % 0.00 in /  0 mm
02:18 41.6 °F /  5.3 °C 36.8 °F /  2.7 °C 30.00 in /  1015.8 hPa Calm     83 % 0.00 in /  0 mm
02:23 41.9 °F /  5.5 °C 36.8 °F /  2.7 °C 30.00 in /  1015.8 hPa Calm     82 % 0.00 in /  0 mm
02:28 42.2 °F /  5.7 °C 36.8 °F /  2.7 °C 30.00 in /  1015.8 hPa Calm     81 % 0.00 in /  0 mm
02:33 42.6 °F /  5.9 °C 36.9 °F /  2.7 °C 30.00 in /  1015.8 hPa NNW 1.2 mph /  1.9 km/h 1.2 mph /  1.9 km/h 80 % 0.00 in /  0 mm
02:38 42.9 °F /  6.1 °C 36.8 °F /  2.7 °C 30.00 in /  1015.8 hPa NNW 2.3 mph /  3.7 km/h 2.3 mph /  3.7 km/h 79 % 0.00 in /  0 mm
02:43 43.3 °F /  6.3 °C 36.9 °F /  2.7 °C 30.00 in /  1015.8 hPa NW 1.2 mph /  1.9 km/h 1.2 mph /  1.9 km/h 78 % 0.00 in /  0 mm
02:48 43.8 °F /  6.6 °C 36.7 °F /  2.6 °C 29.99 in /  1015.5 hPa NW 1.2 mph /  1.9 km/h 1.2 mph /  1.9 km/h 76 % 0.00 in /  0 mm
02:53 44.1 °F /  6.7 °C 36.7 °F /  2.6 °C 29.99 in /  1015.5 hPa NW 1.2 mph /  1.9 km/h   75 % 0.00 in /  0 mm
02:58 44.3 °F /  6.8 °C 36.5 °F /  2.5 °C 29.99 in /  1015.5 hPa Calm     74 % 0.00 in /  0 mm
03:03 44.5 °F /  6.9 °C 36.4 °F /  2.4 °C 29.99 in /  1015.5 hPa NW 1.2 mph /  1.9 km/h 1.2 mph /  1.9 km/h 73 % 0.00 in /  0 mm
03:08 44.9 °F /  7.2 °C 36.4 °F /  2.4 °C 29.99 in /  1015.5 hPa WNW 1.2 mph /  1.9 km/h 1.2 mph /  1.9 km/h 72 % 0.00 in /  0 mm
03:13 45.5 °F /  7.5 °C 36.6 °F /  2.6 °C 29.99 in /  1015.5 hPa WNW 1.2 mph /  1.9 km/h 1.2 mph /  1.9 km/h 71 % 0.00 in /  0 mm
03:18 46.1 °F /  7.8 °C 36.5 °F /  2.5 °C 29.98 in /  1015.1 hPa NW 1.2 mph /  1.9 km/h 1.2 mph /  1.9 km/h 69 % 0.00 in /  0 mm
03:23 46.7 °F /  8.2 °C 36.7 °F /  2.6 °C 29.98 in /  1015.1 hPa NW 1.2 mph /  1.9 km/h 1.2 mph /  1.9 km/h 68 % 0.00 in /  0 mm
03:28 47.2 °F /  8.4 °C 36.8 °F /  2.7 °C 29.98 in /  1015.1 hPa WNW 2.3 mph /  3.7 km/h 2.3 mph /  3.7 km/h 67 % 0.00 in /  0 mm
03:33 47.4 °F /  8.6 °C 36.6 °F /  2.6 °C 29.98 in /  1015.1 hPa NW 1.2 mph /  1.9 km/h 1.2 mph /  1.9 km/h 66 % 0.00 in /  0 mm
03:38 47.4 °F /  8.6 °C 36.6 °F /  2.6 °C 29.98 in /  1015.1 hPa WNW 1.2 mph /  1.9 km/h   66 % 0.00 in /  0 mm
03:43 47.3 °F /  8.5 °C 36.5 °F /  2.5 °C 29.98 in /  1015.1 hPa Calm     66 % 0.00 in /  0 mm
03:48 47.1 °F /  8.4 °C 36.3 °F /  2.4 °C 29.97 in /  1014.8 hPa WNW 1.2 mph /  1.9 km/h   66 % 0.00 in /  0 mm
03:53 46.9 °F /  8.3 °C 36.5 °F /  2.5 °C 29.97 in /  1014.8 hPa Calm     67 % 0.00 in /  0 mm
03:58 46.7 °F /  8.2 °C 36.3 °F /  2.4 °C 29.97 in /  1014.8 hPa Calm     67 % 0.00 in /  0 mm
04:03 46.5 °F /  8.1 °C 36.5 °F /  2.5 °C 29.97 in /  1014.8 hPa Calm     68 % 0.00 in /  0 mm
04:08 45.9 °F /  7.7 °C 36.3 °F /  2.4 °C 29.97 in /  1014.8 hPa Calm     69 % 0.00 in /  0 mm
04:13 45.4 °F /  7.4 °C 36.2 °F /  2.3 °C 29.97 in /  1014.8 hPa Calm     70 % 0.00 in /  0 mm
04:18 44.8 °F /  7.1 °C 36.3 °F /  2.4 °C 29.97 in /  1014.8 hPa Calm     72 % 0.00 in /  0 mm
04:23 43.8 °F /  6.6 °C 36.0 °F /  2.2 °C 29.97 in /  1014.8 hPa WNW 1.2 mph /  1.9 km/h   74 % 0.00 in /  0 mm
04:28 42.7 °F /  5.9 °C 35.7 °F /  2.1 °C 29.97 in /  1014.8 hPa Calm     76 % 0.00 in /  0 mm
04:33 42.0 °F /  5.6 °C 35.3 °F /  1.8 °C 29.97 in /  1014.8 hPa Calm     77 % 0.00 in /  0 mm
04:38 41.6 °F /  5.3 °C 35.6 °F /  2 °C 29.97 in /  1014.8 hPa Calm     79 % 0.00 in /  0 mm
04:43 41.1 °F /  5.1 °C 35.4 °F /  1.9 °C 29.97 in /  1014.8 hPa Calm     80 % 0.00 in /  0 mm
04:48 40.8 °F /  4.9 °C 35.1 °F /  1.7 °C 29.97 in /  1014.8 hPa Calm     80 % 0.00 in /  0 mm
04:53 40.6 °F /  4.8 °C 35.2 °F /  1.8 °C 29.97 in /  1014.8 hPa Calm     81 % 0.00 in /  0 mm
04:58 40.3 °F /  4.6 °C 34.9 °F /  1.6 °C 29.97 in /  1014.8 hPa Calm     81 % 0.00 in /  0 mm
05:03 40.0 °F /  4.4 °C 35.3 °F /  1.8 °C 29.97 in /  1014.8 hPa Calm     83 % 0.00 in /  0 mm
05:08 40.1 °F /  4.5 °C 35.4 °F /  1.9 °C 29.96 in /  1014.4 hPa Calm     83 % 0.00 in /  0 mm
05:13 39.8 °F /  4.3 °C 35.1 °F /  1.7 °C 29.96 in /  1014.4 hPa Calm     83 % 0.00 in /  0 mm
05:18 39.6 °F /  4.2 °C 35.2 °F /  1.8 °C 29.95 in /  1014.1 hPa Calm     84 % 0.00 in /  0 mm
05:24 39.6 °F /  4.2 °C 35.5 °F /  1.9 °C 29.95 in /  1014.1 hPa Calm     85 % 0.00 in /  0 mm
05:29 39.6 °F /  4.2 °C 35.2 °F /  1.8 °C 29.95 in /  1014.1 hPa Calm     84 % 0.00 in /  0 mm
05:34 39.8 °F /  4.3 °C 35.1 °F /  1.7 °C 29.95 in /  1014.1 hPa Calm     83 % 0.00 in /  0 mm
05:39 39.9 °F /  4.4 °C 35.2 °F /  1.8 °C 29.95 in /  1014.1 hPa Calm     83 % 0.00 in /  0 mm
05:44 39.8 °F /  4.3 °C 34.8 °F /  1.6 °C 29.95 in /  1014.1 hPa Calm     82 % 0.00 in /  0 mm
05:49 39.8 °F /  4.3 °C 35.4 °F /  1.9 °C 29.95 in /  1014.1 hPa Calm     84 % 0.00 in /  0 mm
05:54 39.5 °F /  4.2 °C 35.1 °F /  1.7 °C 29.95 in /  1014.1 hPa Calm     84 % 0.00 in /  0 mm
05:59 39.2 °F /  4 °C 34.8 °F /  1.6 °C 29.95 in /  1014.1 hPa Calm     84 % 0.00 in /  0 mm
06:04 39.1 °F /  3.9 °C 34.7 °F /  1.5 °C 29.95 in /  1014.1 hPa Calm     84 % 0.00 in /  0 mm
06:09 39.0 °F /  3.9 °C 35.2 °F /  1.8 °C 29.95 in /  1014.1 hPa Calm     86 % 0.00 in /  0 mm
06:14 39.2 °F /  4 °C 35.4 °F /  1.9 °C 29.94 in /  1013.8 hPa Calm     86 % 0.00 in /  0 mm
06:19 39.2 °F /  4 °C 35.4 °F /  1.9 °C 29.95 in /  1014.1 hPa Calm     86 % 0.00 in /  0 mm
06:24 39.2 °F /  4 °C 35.4 °F /  1.9 °C 29.94 in /  1013.8 hPa Calm     86 % 0.00 in /  0 mm
06:29 39.2 °F /  4 °C 35.4 °F /  1.9 °C 29.94 in /  1013.8 hPa Calm     86 % 0.00 in /  0 mm
06:34 39.4 °F /  4.1 °C 35.6 °F /  2 °C 29.94 in /  1013.8 hPa Calm     86 % 0.00 in /  0 mm
06:39 40.0 °F /  4.4 °C 35.6 °F /  2 °C 29.94 in /  1013.8 hPa Calm     84 % 0.00 in /  0 mm
06:44 40.7 °F /  4.8 °C 35.6 °F /  2 °C 29.94 in /  1013.8 hPa Calm     82 % 0.00 in /  0 mm
06:49 41.2 °F /  5.1 °C 35.5 °F /  1.9 °C 29.94 in /  1013.8 hPa Calm     80 % 0.00 in /  0 mm
06:54 41.6 °F /  5.3 °C 36.2 °F /  2.3 °C 29.94 in /  1013.8 hPa Calm     81 % 0.00 in /  0 mm
06:59 42.0 °F /  5.6 °C 36.3 °F /  2.4 °C 29.95 in /  1014.1 hPa Calm     80 % 0.00 in /  0 mm
07:04 42.4 °F /  5.8 °C 36.7 °F /  2.6 °C 29.95 in /  1014.1 hPa Calm     80 % 0.00 in /  0 mm
07:09 42.7 °F /  5.9 °C 37.0 °F /  2.8 °C 29.95 in /  1014.1 hPa Calm     80 % 0.00 in /  0 mm
07:14 42.9 °F /  6.1 °C 37.2 °F /  2.9 °C 29.95 in /  1014.1 hPa Calm     80 % 0.00 in /  0 mm
07:19 43.1 °F /  6.2 °C 37.3 °F /  2.9 °C 29.96 in /  1014.4 hPa Calm     80 % 0.00 in /  0 mm
07:24 43.5 °F /  6.4 °C 37.4 °F /  3 °C 29.96 in /  1014.4 hPa Calm     79 % 0.00 in /  0 mm
07:29 43.9 °F /  6.6 °C 37.8 °F /  3.2 °C 29.97 in /  1014.8 hPa Calm     79 % 0.00 in /  0 mm
07:34 44.2 °F /  6.8 °C 37.8 °F /  3.2 °C 29.97 in /  1014.8 hPa Calm     78 % 0.00 in /  0 mm
07:39 44.9 °F /  7.2 °C 37.8 °F /  3.2 °C 29.97 in /  1014.8 hPa NNW 1.2 mph /  1.9 km/h 1.2 mph /  1.9 km/h 76 % 0.00 in /  0 mm
07:44 45.7 °F /  7.6 °C 37.5 °F /  3.1 °C 29.97 in /  1014.8 hPa Calm     73 % 0.00 in /  0 mm
07:49 46.5 °F /  8.1 °C 37.6 °F /  3.1 °C 29.97 in /  1014.8 hPa NW 2.0 mph /  3.2 km/h 2.0 mph /  3.2 km/h 71 % 0.00 in /  0 mm
07:54 47.0 °F /  8.3 °C 37.7 °F /  3.2 °C 29.97 in /  1014.8 hPa Calm     70 % 0.00 in /  0 mm
07:59 47.7 °F /  8.7 °C 38.4 °F /  3.6 °C 29.97 in /  1014.8 hPa Calm     70 % 0.00 in /  0 mm
08:04 48.8 °F /  9.3 °C 38.7 °F /  3.7 °C 29.97 in /  1014.8 hPa WNW 1.2 mph /  1.9 km/h   68 % 0.00 in /  0 mm
08:09 49.5 °F /  9.7 °C 39.4 °F /  4.1 °C 29.97 in /  1014.8 hPa Calm     68 % 0.00 in /  0 mm
08:14 50.0 °F /  10 °C 38.7 °F /  3.7 °C 29.97 in /  1014.8 hPa WNW 1.2 mph /  1.9 km/h 1.2 mph /  1.9 km/h 65 % 0.00 in /  0 mm
08:19 50.3 °F /  10.2 °C 38.6 °F /  3.7 °C 29.97 in /  1014.8 hPa WNW 1.2 mph /  1.9 km/h 1.2 mph /  1.9 km/h 64 % 0.00 in /  0 mm
08:24 51.2 °F /  10.7 °C 38.2 °F /  3.4 °C 29.97 in /  1014.8 hPa NW 1.2 mph /  1.9 km/h 1.2 mph /  1.9 km/h 61 % 0.00 in /  0 mm
08:29 52.3 °F /  11.3 °C 38.4 °F /  3.6 °C 29.97 in /  1014.8 hPa Calm     59 % 0.00 in /  0 mm
08:34 53.3 °F /  11.8 °C 38.4 °F /  3.6 °C 29.97 in /  1014.8 hPa NW 1.2 mph /  1.9 km/h 1.2 mph /  1.9 km/h 57 % 0.00 in /  0 mm
08:39 54.3 °F /  12.4 °C 38.0 °F /  3.3 °C 29.97 in /  1014.8 hPa NW 1.2 mph /  1.9 km/h   54 % 0.00 in /  0 mm
08:44 55.3 °F /  12.9 °C 38.0 °F /  3.3 °C 29.97 in /  1014.8 hPa NW 1.2 mph /  1.9 km/h 1.2 mph /  1.9 km/h 52 % 0.00 in /  0 mm
08:49 56.2 °F /  13.4 °C 38.3 °F /  3.5 °C 29.97 in /  1014.8 hPa Calm     51 % 0.00 in /  0 mm
08:54 56.9 °F /  13.8 °C 37.4 °F /  3 °C 29.96 in /  1014.4 hPa WNW 1.2 mph /  1.9 km/h 1.2 mph /  1.9 km/h 48 % 0.00 in /  0 mm
08:59 57.6 °F /  14.2 °C 38.6 °F /  3.7 °C 29.96 in /  1014.4 hPa Calm     49 % 0.00 in /  0 mm
09:04 58.7 °F /  14.8 °C 39.6 °F /  4.2 °C 29.96 in /  1014.4 hPa Calm     49 % 0.00 in /  0 mm
09:09 59.5 °F /  15.3 °C 38.1 °F /  3.4 °C 29.96 in /  1014.4 hPa Calm     45 % 0.00 in /  0 mm
09:14 59.7 °F /  15.4 °C 37.7 °F /  3.2 °C 29.96 in /  1014.4 hPa NW 1.2 mph /  1.9 km/h 1.2 mph /  1.9 km/h 44 % 0.00 in /  0 mm
09:19 60.0 °F /  15.6 °C 38.0 °F /  3.3 °C 29.96 in /  1014.4 hPa Calm     44 % 0.00 in /  0 mm
09:24 60.4 °F /  15.8 °C 38.9 °F /  3.8 °C 29.95 in /  1014.1 hPa Calm     45 % 0.00 in /  0 mm
09:29 60.8 °F /  16 °C 36.9 °F /  2.7 °C 29.95 in /  1014.1 hPa WNW 1.2 mph /  1.9 km/h 1.2 mph /  1.9 km/h 41 % 0.00 in /  0 mm
09:35 61.2 °F /  16.2 °C 37.9 °F /  3.3 °C 29.95 in /  1014.1 hPa WNW 1.2 mph /  1.9 km/h 1.2 mph /  1.9 km/h 42 % 0.00 in /  0 mm
09:40 62.0 °F /  16.7 °C 37.4 °F /  3 °C 29.95 in /  1014.1 hPa Calm     40 % 0.00 in /  0 mm
09:45 62.8 °F /  17.1 °C 37.5 °F /  3.1 °C 29.94 in /  1013.8 hPa South 1.2 mph /  1.9 km/h   39 % 0.00 in /  0 mm
09:50 63.7 °F /  17.6 °C 37.6 °F /  3.1 °C 29.94 in /  1013.8 hPa SE 1.2 mph /  1.9 km/h   38 % 0.00 in /  0 mm
09:55 64.3 °F /  17.9 °C 38.1 °F /  3.4 °C 29.95 in /  1014.1 hPa SSE 2.3 mph /  3.7 km/h 2.3 mph /  3.7 km/h 38 % 0.00 in /  0 mm
10:00 64.7 °F /  18.2 °C 36.4 °F /  2.4 °C 29.95 in /  1014.1 hPa ENE 1.2 mph /  1.9 km/h   35 % 0.00 in /  0 mm
10:05 64.4 °F /  18 °C 37.5 °F /  3.1 °C 29.95 in /  1014.1 hPa South 2.3 mph /  3.7 km/h 2.3 mph /  3.7 km/h 37 % 0.00 in /  0 mm
10:10 64.9 °F /  18.3 °C 39.3 °F /  4.1 °C 29.95 in /  1014.1 hPa SSE 1.2 mph /  1.9 km/h 1.2 mph /  1.9 km/h 39 % 0.00 in /  0 mm
10:15 65.4 °F /  18.6 °C 37.7 °F /  3.2 °C 29.94 in /  1013.8 hPa SSW 2.3 mph /  3.7 km/h 2.3 mph /  3.7 km/h 36 % 0.00 in /  0 mm
10:20 65.6 °F /  18.7 °C 36.5 °F /  2.5 °C 29.94 in /  1013.8 hPa WSW 3.0 mph /  4.8 km/h 3.0 mph /  4.8 km/h 34 % 0.00 in /  0 mm
10:25 65.2 °F /  18.4 °C 37.6 °F /  3.1 °C 29.94 in /  1013.8 hPa West 1.2 mph /  1.9 km/h   36 % 0.00 in /  0 mm
10:30 65.2 °F /  18.4 °C 36.8 °F /  2.7 °C 29.94 in /  1013.8 hPa North 1.2 mph /  1.9 km/h 1.2 mph /  1.9 km/h 35 % 0.00 in /  0 mm
10:35 65.4 °F /  18.6 °C 39.8 °F /  4.3 °C 29.94 in /  1013.8 hPa WSW 2.3 mph /  3.7 km/h 2.3 mph /  3.7 km/h 39 % 0.00 in /  0 mm
10:40 65.8 °F /  18.8 °C 39.5 °F /  4.2 °C 29.94 in /  1013.8 hPa East 3.5 mph /  5.6 km/h 3.5 mph /  5.6 km/h 38 % 0.00 in /  0 mm
10:45 65.6 °F /  18.7 °C 39.3 °F /  4.1 °C 29.94 in /  1013.8 hPa WSW 3.0 mph /  4.8 km/h 3.0 mph /  4.8 km/h 38 % 0.00 in /  0 mm
10:50 65.3 °F /  18.5 °C 39.7 °F /  4.3 °C 29.94 in /  1013.8 hPa SSE 2.3 mph /  3.7 km/h 2.3 mph /  3.7 km/h 39 % 0.00 in /  0 mm
10:55 65.5 °F /  18.6 °C 41.2 °F /  5.1 °C 29.94 in /  1013.8 hPa SSW 2.3 mph /  3.7 km/h 2.3 mph /  3.7 km/h 41 % 0.00 in /  0 mm
11:00 65.7 °F /  18.7 °C 40.1 °F /  4.5 °C 29.94 in /  1013.8 hPa WNW 3.5 mph /  5.6 km/h 3.5 mph /  5.6 km/h 39 % 0.00 in /  0 mm
11:05 65.4 °F /  18.6 °C 39.1 °F /  3.9 °C 29.93 in /  1013.4 hPa West 2.3 mph /  3.7 km/h 2.3 mph /  3.7 km/h 38 % 0.00 in /  0 mm
11:10 65.4 °F /  18.6 °C 39.1 °F /  3.9 °C 29.93 in /  1013.4 hPa NNW 1.2 mph /  1.9 km/h 1.2 mph /  1.9 km/h 38 % 0.00 in /  0 mm
11:15 65.9 °F /  18.8 °C 39.6 °F /  4.2 °C 29.93 in /  1013.4 hPa NNW 3.5 mph /  5.6 km/h 3.5 mph /  5.6 km/h 38 % 0.00 in /  0 mm
11:20 65.9 °F /  18.8 °C 40.2 °F /  4.6 °C 29.93 in /  1013.4 hPa NW 3.0 mph /  4.8 km/h 3.0 mph /  4.8 km/h 39 % 0.00 in /  0 mm
11:25 66.1 °F /  18.9 °C 37.6 °F /  3.1 °C 29.92 in /  1013.1 hPa NNW 3.5 mph /  5.6 km/h 3.5 mph /  5.6 km/h 35 % 0.00 in /  0 mm
11:30 66.1 °F /  18.9 °C 39.7 °F /  4.3 °C 29.92 in /  1013.1 hPa Calm     38 % 0.00 in /  0 mm
11:35 66.7 °F /  19.3 °C 40.3 °F /  4.6 °C 29.92 in /  1013.1 hPa ESE 2.3 mph /  3.7 km/h 2.3 mph /  3.7 km/h 38 % 0.00 in /  0 mm
11:40 67.2 °F /  19.6 °C 40.0 °F /  4.4 °C 29.92 in /  1013.1 hPa NE 2.3 mph /  3.7 km/h 2.3 mph /  3.7 km/h 37 % 0.00 in /  0 mm
11:45 67.5 °F /  19.7 °C 40.3 °F /  4.6 °C 29.92 in /  1013.1 hPa NW 2.3 mph /  3.7 km/h 2.3 mph /  3.7 km/h 37 % 0.00 in /  0 mm
11:50 67.9 °F /  19.9 °C 38.5 °F /  3.6 °C 29.92 in /  1013.1 hPa NW 2.3 mph /  3.7 km/h 2.3 mph /  3.7 km/h 34 % 0.00 in /  0 mm
11:55 67.9 °F /  19.9 °C 37.7 °F /  3.2 °C 29.91 in /  1012.8 hPa NW 3.5 mph /  5.6 km/h 3.5 mph /  5.6 km/h 33 % 0.00 in /  0 mm
12:00 67.9 °F /  19.9 °C 38.5 °F /  3.6 °C 29.91 in /  1012.8 hPa South 2.3 mph /  3.7 km/h 2.3 mph /  3.7 km/h 34 % 0.00 in /  0 mm
12:05 68.4 °F /  20.2 °C 39.7 °F /  4.3 °C 29.91 in /  1012.8 hPa NW 3.5 mph /  5.6 km/h 3.5 mph /  5.6 km/h 35 % 0.00 in /  0 mm
12:10 68.3 °F /  20.2 °C 40.3 °F /  4.6 °C 29.90 in /  1012.4 hPa NE 3.5 mph /  5.6 km/h 3.5 mph /  5.6 km/h 36 % 0.00 in /  0 mm
12:15 68.1 °F /  20.1 °C 39.4 °F /  4.1 °C 29.90 in /  1012.4 hPa WNW 2.3 mph /  3.7 km/h 2.3 mph /  3.7 km/h 35 % 0.00 in /  0 mm
12:20 68.0 °F /  20 °C 40.0 °F /  4.4 °C 29.90 in /  1012.4 hPa WNW 4.6 mph /  7.4 km/h 4.6 mph /  7.4 km/h 36 % 0.00 in /  0 mm
12:25 67.9 °F /  19.9 °C 39.9 °F /  4.4 °C 29.90 in /  1012.4 hPa West 3.5 mph /  5.6 km/h 3.5 mph /  5.6 km/h 36 % 0.00 in /  0 mm
12:30 68.0 °F /  20 °C 40.0 °F /  4.4 °C 29.90 in /  1012.4 hPa NW 4.6 mph /  7.4 km/h 4.6 mph /  7.4 km/h 36 % 0.00 in /  0 mm
12:35 68.0 °F /  20 °C 40.0 °F /  4.4 °C 29.89 in /  1012.1 hPa NW 3.5 mph /  5.6 km/h 3.5 mph /  5.6 km/h 36 % 0.00 in /  0 mm
12:41 68.2 °F /  20.1 °C 40.2 °F /  4.6 °C 29.89 in /  1012.1 hPa NW 4.6 mph /  7.4 km/h 4.6 mph /  7.4 km/h 36 % 0.00 in /  0 mm
12:46 68.3 °F /  20.2 °C 40.3 °F /  4.6 °C 29.89 in /  1012.1 hPa NW 5.8 mph /  9.3 km/h 5.8 mph /  9.3 km/h 36 % 0.00 in /  0 mm
12:51 68.4 °F /  20.2 °C 39.7 °F /  4.3 °C 29.89 in /  1012.1 hPa NW 4.6 mph /  7.4 km/h 4.6 mph /  7.4 km/h 35 % 0.00 in /  0 mm
12:56 68.2 °F /  20.1 °C 39.5 °F /  4.2 °C 29.88 in /  1011.7 hPa NW 3.5 mph /  5.6 km/h 3.5 mph /  5.6 km/h 35 % 0.00 in /  0 mm
13:01 68.3 °F /  20.2 °C 40.3 °F /  4.6 °C 29.88 in /  1011.7 hPa NW 4.6 mph /  7.4 km/h 4.6 mph /  7.4 km/h 36 % 0.00 in /  0 mm
13:06 68.3 °F /  20.2 °C 39.6 °F /  4.2 °C 29.88 in /  1011.7 hPa NW 5.8 mph /  9.3 km/h 5.8 mph /  9.3 km/h 35 % 0.00 in /  0 mm
13:11 68.0 °F /  20 °C 38.6 °F /  3.7 °C 29.88 in /  1011.7 hPa NNE 5.0 mph /  8 km/h 5.0 mph /  8 km/h 34 % 0.00 in /  0 mm
13:16 68.3 °F /  20.2 °C 39.6 °F /  4.2 °C 29.88 in /  1011.7 hPa NNW 6.0 mph /  9.7 km/h 6.0 mph /  9.7 km/h 35 % 0.00 in /  0 mm
13:21 68.2 °F /  20.1 °C 39.5 °F /  4.2 °C 29.87 in /  1011.4 hPa WNW 3.5 mph /  5.6 km/h 3.5 mph /  5.6 km/h 35 % 0.00 in /  0 mm
13:26 68.8 °F /  20.4 °C 39.3 °F /  4.1 °C 29.87 in /  1011.4 hPa North 6.0 mph /  9.7 km/h 6.0 mph /  9.7 km/h 34 % 0.00 in /  0 mm
13:31 68.3 °F /  20.2 °C 38.1 °F /  3.4 °C 29.87 in /  1011.4 hPa NW 4.6 mph /  7.4 km/h 4.6 mph /  7.4 km/h 33 % 0.00 in /  0 mm
13:36 68.2 °F /  20.1 °C 38.0 °F /  3.3 °C 29.87 in /  1011.4 hPa NNW 5.8 mph /  9.3 km/h 5.8 mph /  9.3 km/h 33 % 0.00 in /  0 mm
13:41 68.1 °F /  20.1 °C 38.7 °F /  3.7 °C 29.86 in /  1011.1 hPa North 3.5 mph /  5.6 km/h 3.5 mph /  5.6 km/h 34 % 0.00 in /  0 mm
13:46 68.0 °F /  20 °C 39.3 °F /  4.1 °C 29.86 in /  1011.1 hPa WNW 7.0 mph /  11.3 km/h 7.0 mph /  11.3 km/h 35 % 0.00 in /  0 mm
13:51 68.0 °F /  20 °C 37.8 °F /  3.2 °C 29.86 in /  1011.1 hPa NW 5.0 mph /  8 km/h 5.0 mph /  8 km/h 33 % 0.00 in /  0 mm
13:56 68.4 °F /  20.2 °C 38.2 °F /  3.4 °C 29.86 in /  1011.1 hPa NW 5.8 mph /  9.3 km/h 5.8 mph /  9.3 km/h 33 % 0.00 in /  0 mm
14:01 68.2 °F /  20.1 °C 38.7 °F /  3.7 °C 29.85 in /  1010.7 hPa NNW 3.5 mph /  5.6 km/h 3.5 mph /  5.6 km/h 34 % 0.00 in /  0 mm
14:06 68.3 °F /  20.2 °C 39.6 °F /  4.2 °C 29.86 in /  1011.1 hPa WNW 6.0 mph /  9.7 km/h 6.0 mph /  9.7 km/h 35 % 0.00 in /  0 mm
14:11 68.2 °F /  20.1 °C 40.2 °F /  4.6 °C 29.85 in /  1010.7 hPa NW 3.5 mph /  5.6 km/h 3.5 mph /  5.6 km/h 36 % 0.00 in /  0 mm
14:16 68.3 °F /  20.2 °C 41.0 °F /  5 °C 29.85 in /  1010.7 hPa NW 8.1 mph /  13 km/h 8.1 mph /  13 km/h 37 % 0.00 in /  0 mm
14:21 68.2 °F /  20.1 °C 40.2 °F /  4.6 °C 29.85 in /  1010.7 hPa NW 5.8 mph /  9.3 km/h 5.8 mph /  9.3 km/h 36 % 0.00 in /  0 mm
14:26 68.0 °F /  20 °C 39.3 °F /  4.1 °C 29.85 in /  1010.7 hPa NW 5.0 mph /  8 km/h 5.0 mph /  8 km/h 35 % 0.00 in /  0 mm
14:31 68.0 °F /  20 °C 39.3 °F /  4.1 °C 29.84 in /  1010.4 hPa NNW 5.0 mph /  8 km/h 5.0 mph /  8 km/h 35 % 0.00 in /  0 mm
14:36 68.1 °F /  20.1 °C 39.4 °F /  4.1 °C 29.84 in /  1010.4 hPa NW 3.5 mph /  5.6 km/h 3.5 mph /  5.6 km/h 35 % 0.00 in /  0 mm
14:41 68.4 °F /  20.2 °C 38.9 °F /  3.8 °C 29.84 in /  1010.4 hPa WNW 4.6 mph /  7.4 km/h 4.6 mph /  7.4 km/h 34 % 0.00 in /  0 mm
14:46 68.4 °F /  20.2 °C 38.2 °F /  3.4 °C 29.83 in /  1010 hPa WNW 3.5 mph /  5.6 km/h 3.5 mph /  5.6 km/h 33 % 0.00 in /  0 mm
14:51 68.6 °F /  20.3 °C 39.1 °F /  3.9 °C 29.83 in /  1010 hPa WNW 6.9 mph /  11.1 km/h 6.9 mph /  11.1 km/h 34 % 0.00 in /  0 mm
14:56 68.3 °F /  20.2 °C 39.6 °F /  4.2 °C 29.83 in /  1010 hPa NNW 3.5 mph /  5.6 km/h 3.5 mph /  5.6 km/h 35 % 0.00 in /  0 mm
15:01 68.6 °F /  20.3 °C 40.6 °F /  4.8 °C 29.83 in /  1010 hPa WNW 6.9 mph /  11.1 km/h 6.9 mph /  11.1 km/h 36 % 0.00 in /  0 mm
15:06 68.7 °F /  20.4 °C 39.9 °F /  4.4 °C 29.83 in /  1010 hPa WNW 4.6 mph /  7.4 km/h 4.6 mph /  7.4 km/h 35 % 0.00 in /  0 mm
15:11 68.5 °F /  20.3 °C 40.5 °F /  4.7 °C 29.83 in /  1010 hPa NW 6.9 mph /  11.1 km/h 6.9 mph /  11.1 km/h 36 % 0.00 in /  0 mm
15:16 68.1 °F /  20.1 °C 40.1 °F /  4.5 °C 29.83 in /  1010 hPa WNW 3.5 mph /  5.6 km/h 3.5 mph /  5.6 km/h 36 % 0.00 in /  0 mm
15:21 68.0 °F /  20 °C 40.0 °F /  4.4 °C 29.83 in /  1010 hPa NW 8.1 mph /  13 km/h 8.1 mph /  13 km/h 36 % 0.00 in /  0 mm
15:26 67.7 °F /  19.8 °C 40.5 °F /  4.7 °C 29.83 in /  1010 hPa ENE 11.5 mph /  18.5 km/h 11.5 mph /  18.5 km/h 37 % 0.00 in /  0 mm
15:31 67.3 °F /  19.6 °C 40.8 °F /  4.9 °C 29.82 in /  1009.7 hPa NW 9.2 mph /  14.8 km/h 9.2 mph /  14.8 km/h 38 % 0.00 in /  0 mm
15:36 67.4 °F /  19.7 °C 40.2 °F /  4.6 °C 29.82 in /  1009.7 hPa NW 4.6 mph /  7.4 km/h 4.6 mph /  7.4 km/h 37 % 0.00 in /  0 mm
15:41 67.1 °F /  19.5 °C 39.9 °F /  4.4 °C 29.82 in /  1009.7 hPa WNW 4.6 mph /  7.4 km/h 4.6 mph /  7.4 km/h 37 % 0.00 in /  0 mm
15:46 66.9 °F /  19.4 °C 39.8 °F /  4.3 °C 29.82 in /  1009.7 hPa NW 4.0 mph /  6.4 km/h 4.0 mph /  6.4 km/h 37 % 0.00 in /  0 mm
15:51 66.8 °F /  19.3 °C 39.7 °F /  4.3 °C 29.82 in /  1009.7 hPa NW 6.9 mph /  11.1 km/h 6.9 mph /  11.1 km/h 37 % 0.00 in /  0 mm
15:56 66.5 °F /  19.2 °C 40.1 °F /  4.5 °C 29.82 in /  1009.7 hPa NW 4.0 mph /  6.4 km/h 4.0 mph /  6.4 km/h 38 % 0.00 in /  0 mm
16:01 66.4 °F /  19.1 °C 40.0 °F /  4.4 °C 29.82 in /  1009.7 hPa West 6.9 mph /  11.1 km/h 6.9 mph /  11.1 km/h 38 % 0.00 in /  0 mm
16:06 66.4 °F /  19.1 °C 40.0 °F /  4.4 °C 29.82 in /  1009.7 hPa WNW 6.0 mph /  9.7 km/h 6.0 mph /  9.7 km/h 38 % 0.00 in /  0 mm
16:11 66.0 °F /  18.9 °C 40.3 °F /  4.6 °C 29.82 in /  1009.7 hPa NW 5.8 mph /  9.3 km/h 5.8 mph /  9.3 km/h 39 % 0.00 in /  0 mm
16:16 65.7 °F /  18.7 °C 40.7 °F /  4.8 °C 29.82 in /  1009.7 hPa NW 6.9 mph /  11.1 km/h 6.9 mph /  11.1 km/h 40 % 0.00 in /  0 mm
16:21 65.5 °F /  18.6 °C 41.2 °F /  5.1 °C 29.82 in /  1009.7 hPa NW 3.5 mph /  5.6 km/h 3.5 mph /  5.6 km/h 41 % 0.00 in /  0 mm
16:26 65.3 °F /  18.5 °C 40.3 °F /  4.6 °C 29.82 in /  1009.7 hPa NW 6.0 mph /  9.7 km/h 6.0 mph /  9.7 km/h 40 % 0.00 in /  0 mm
16:31 65.0 °F /  18.3 °C 40.7 °F /  4.8 °C 29.82 in /  1009.7 hPa NW 5.8 mph /  9.3 km/h 5.8 mph /  9.3 km/h 41 % 0.00 in /  0 mm
16:36 64.8 °F /  18.2 °C 40.5 °F /  4.7 °C 29.82 in /  1009.7 hPa NW 3.5 mph /  5.6 km/h 3.5 mph /  5.6 km/h 41 % 0.00 in /  0 mm
16:41 64.6 °F /  18.1 °C 40.4 °F /  4.7 °C 29.82 in /  1009.7 hPa WNW 4.6 mph /  7.4 km/h 4.6 mph /  7.4 km/h 41 % 0.00 in /  0 mm
16:46 64.4 °F /  18 °C 40.2 °F /  4.6 °C 29.82 in /  1009.7 hPa NW 5.8 mph /  9.3 km/h 5.8 mph /  9.3 km/h 41 % 0.00 in /  0 mm
16:51 64.1 °F /  17.8 °C 40.5 °F /  4.7 °C 29.82 in /  1009.7 hPa NW 6.9 mph /  11.1 km/h 6.9 mph /  11.1 km/h 42 % 0.00 in /  0 mm
16:56 63.7 °F /  17.6 °C 40.8 °F /  4.9 °C 29.82 in /  1009.7 hPa NW 5.8 mph /  9.3 km/h 5.8 mph /  9.3 km/h 43 % 0.00 in /  0 mm
17:01 63.5 °F /  17.5 °C 40.6 °F /  4.8 °C 29.82 in /  1009.7 hPa NW 5.8 mph /  9.3 km/h 5.8 mph /  9.3 km/h 43 % 0.00 in /  0 mm
17:06 63.1 °F /  17.3 °C 40.2 °F /  4.6 °C 29.82 in /  1009.7 hPa NW 5.8 mph /  9.3 km/h 5.8 mph /  9.3 km/h 43 % 0.00 in /  0 mm
17:11 62.7 °F /  17.1 °C 39.9 °F /  4.4 °C 29.82 in /  1009.7 hPa WNW 5.8 mph /  9.3 km/h 5.8 mph /  9.3 km/h 43 % 0.00 in /  0 mm
17:16 62.4 °F /  16.9 °C 39.6 °F /  4.2 °C 29.82 in /  1009.7 hPa NW 6.9 mph /  11.1 km/h 6.9 mph /  11.1 km/h 43 % 0.00 in /  0 mm
17:21 62.0 °F /  16.7 °C 39.8 °F /  4.3 °C 29.82 in /  1009.7 hPa NW 4.0 mph /  6.4 km/h 4.0 mph /  6.4 km/h 44 % 0.00 in /  0 mm
17:26 61.6 °F /  16.4 °C 40.0 °F /  4.4 °C 29.82 in /  1009.7 hPa NW 3.5 mph /  5.6 km/h 3.5 mph /  5.6 km/h 45 % 0.00 in /  0 mm
17:31 61.2 °F /  16.2 °C 39.7 °F /  4.3 °C 29.82 in /  1009.7 hPa NW 4.6 mph /  7.4 km/h 4.6 mph /  7.4 km/h 45 % 0.00 in /  0 mm
17:36 60.9 °F /  16.1 °C 39.4 °F /  4.1 °C 29.82 in /  1009.7 hPa NW 6.0 mph /  9.7 km/h 6.0 mph /  9.7 km/h 45 % 0.00 in /  0 mm
17:41 60.5 °F /  15.8 °C 40.2 °F /  4.6 °C 29.82 in /  1009.7 hPa NW 5.8 mph /  9.3 km/h 5.8 mph /  9.3 km/h 47 % 0.00 in /  0 mm
17:46 60.2 °F /  15.7 °C 40.4 °F /  4.7 °C 29.82 in /  1009.7 hPa NW 3.5 mph /  5.6 km/h 3.5 mph /  5.6 km/h 48 % 0.00 in /  0 mm
17:51 59.9 °F /  15.5 °C 40.7 °F /  4.8 °C 29.82 in /  1009.7 hPa NW 4.6 mph /  7.4 km/h 4.6 mph /  7.4 km/h 49 % 0.00 in /  0 mm
17:56 59.6 °F /  15.3 °C 40.4 °F /  4.7 °C 29.82 in /  1009.7 hPa WNW 5.0 mph /  8 km/h 5.0 mph /  8 km/h 49 % 0.00 in /  0 mm
18:01 59.3 °F /  15.2 °C 40.7 °F /  4.8 °C 29.82 in /  1009.7 hPa WNW 3.0 mph /  4.8 km/h 3.0 mph /  4.8 km/h 50 % 0.00 in /  0 mm
18:07 59.1 °F /  15.1 °C 40.5 °F /  4.7 °C 29.82 in /  1009.7 hPa WNW 3.5 mph /  5.6 km/h 3.5 mph /  5.6 km/h 50 % 0.00 in /  0 mm
18:12 58.8 °F /  14.9 °C 40.2 °F /  4.6 °C 29.82 in /  1009.7 hPa NW 3.5 mph /  5.6 km/h 3.5 mph /  5.6 km/h 50 % 0.00 in /  0 mm
18:17 58.5 °F /  14.7 °C 39.9 °F /  4.4 °C 29.82 in /  1009.7 hPa WNW 3.5 mph /  5.6 km/h 3.5 mph /  5.6 km/h 50 % 0.00 in /  0 mm
18:22 58.2 °F /  14.6 °C 40.1 °F /  4.5 °C 29.82 in /  1009.7 hPa WNW 4.0 mph /  6.4 km/h 4.0 mph /  6.4 km/h 51 % 0.00 in /  0 mm
18:27 57.9 °F /  14.4 °C 39.9 °F /  4.4 °C 29.83 in /  1010 hPa West 3.5 mph /  5.6 km/h 3.5 mph /  5.6 km/h 51 % 0.00 in /  0 mm
18:32 57.8 °F /  14.3 °C 39.8 °F /  4.3 °C 29.83 in /  1010 hPa NNW 4.6 mph /  7.4 km/h 4.6 mph /  7.4 km/h 51 % 0.00 in /  0 mm
18:37 57.5 °F /  14.2 °C 39.5 °F /  4.2 °C 29.83 in /  1010 hPa WNW 3.5 mph /  5.6 km/h 3.5 mph /  5.6 km/h 51 % 0.00 in /  0 mm
18:42 57.4 °F /  14.1 °C 38.9 °F /  3.8 °C 29.83 in /  1010 hPa NW 8.1 mph /  13 km/h 8.1 mph /  13 km/h 50 % 0.00 in /  0 mm
18:47 57.5 °F /  14.2 °C 37.9 °F /  3.3 °C 29.84 in /  1010.4 hPa WNW 9.2 mph /  14.8 km/h 9.2 mph /  14.8 km/h 48 % 0.00 in /  0 mm
18:52 57.3 °F /  14.1 °C 36.1 °F /  2.3 °C 29.83 in /  1010 hPa NW 8.1 mph /  13 km/h 8.1 mph /  13 km/h 45 % 0.00 in /  0 mm
18:57 57.1 °F /  13.9 °C 35.4 °F /  1.9 °C 29.83 in /  1010 hPa WNW 9.2 mph /  14.8 km/h 9.2 mph /  14.8 km/h 44 % 0.00 in /  0 mm
19:02 56.9 °F /  13.8 °C 35.2 °F /  1.8 °C 29.84 in /  1010.4 hPa WNW 6.9 mph /  11.1 km/h 6.9 mph /  11.1 km/h 44 % 0.00 in /  0 mm
19:07 56.7 °F /  13.7 °C 35.6 °F /  2 °C 29.84 in /  1010.4 hPa NW 11.5 mph /  18.5 km/h 11.5 mph /  18.5 km/h 45 % 0.00 in /  0 mm
19:12 56.6 °F /  13.7 °C 35.5 °F /  1.9 °C 29.84 in /  1010.4 hPa NW 9.2 mph /  14.8 km/h 9.2 mph /  14.8 km/h 45 % 0.00 in /  0 mm
19:17 56.4 °F /  13.6 °C 35.9 °F /  2.2 °C 29.84 in /  1010.4 hPa West 11.5 mph /  18.5 km/h 11.5 mph /  18.5 km/h 46 % 0.00 in /  0 mm
19:22 56.3 °F /  13.5 °C 35.8 °F /  2.1 °C 29.84 in /  1010.4 hPa NW 6.0 mph /  9.7 km/h 6.0 mph /  9.7 km/h 46 % 0.00 in /  0 mm
19:27 55.9 °F /  13.3 °C 35.9 °F /  2.2 °C 29.84 in /  1010.4 hPa NNW 8.0 mph /  12.9 km/h 8.0 mph /  12.9 km/h 47 % 0.00 in /  0 mm
19:32 55.8 °F /  13.2 °C 36.4 °F /  2.4 °C 29.85 in /  1010.7 hPa NNE 7.0 mph /  11.3 km/h 7.0 mph /  11.3 km/h 48 % 0.00 in /  0 mm
19:37 55.6 °F /  13.1 °C 34.6 °F /  1.4 °C 29.85 in /  1010.7 hPa NW 11.5 mph /  18.5 km/h 11.5 mph /  18.5 km/h 45 % 0.00 in /  0 mm
19:42 55.4 °F /  13 °C 35.5 °F /  1.9 °C 29.86 in /  1011.1 hPa WNW 12.0 mph /  19.3 km/h 12.0 mph /  19.3 km/h 47 % 0.00 in /  0 mm
19:47 55.0 °F /  12.8 °C 34.0 °F /  1.1 °C 29.86 in /  1011.1 hPa NNW 11.5 mph /  18.5 km/h 11.5 mph /  18.5 km/h 45 % 0.00 in /  0 mm
19:52 54.6 °F /  12.6 °C 33.1 °F /  0.6 °C 29.86 in /  1011.1 hPa NNE 11.5 mph /  18.5 km/h 11.5 mph /  18.5 km/h 44 % 0.00 in /  0 mm
19:57 54.1 °F /  12.3 °C 32.6 °F /  0.3 °C 29.87 in /  1011.4 hPa NW 12.0 mph /  19.3 km/h 12.0 mph /  19.3 km/h 44 % 0.00 in /  0 mm
20:02 53.8 °F /  12.1 °C 32.9 °F /  0.5 °C 29.87 in /  1011.4 hPa NNW 11.5 mph /  18.5 km/h 11.5 mph /  18.5 km/h 45 % 0.00 in /  0 mm
20:07 53.6 °F /  12 °C 32.8 °F /  0.4 °C 29.87 in /  1011.4 hPa WNW 11.5 mph /  18.5 km/h 11.5 mph /  18.5 km/h 45 % 0.00 in /  0 mm
20:12 53.4 °F /  11.9 °C 33.1 °F /  0.6 °C 29.87 in /  1011.4 hPa NW 8.1 mph /  13 km/h 8.1 mph /  13 km/h 46 % 0.00 in /  0 mm
20:17 53.1 °F /  11.7 °C 33.4 °F /  0.8 °C 29.87 in /  1011.4 hPa NNE 8.1 mph /  13 km/h 8.1 mph /  13 km/h 47 % 0.00 in /  0 mm
20:22 52.7 °F /  11.5 °C 33.5 °F /  0.8 °C 29.88 in /  1011.7 hPa NW 6.9 mph /  11.1 km/h 6.9 mph /  11.1 km/h 48 % 0.00 in /  0 mm
20:27 52.5 °F /  11.4 °C 33.4 °F /  0.8 °C 29.88 in /  1011.7 hPa WNW 10.4 mph /  16.7 km/h 10.4 mph /  16.7 km/h 48 % 0.00 in /  0 mm
20:32 52.3 °F /  11.3 °C 33.2 °F /  0.7 °C 29.88 in /  1011.7 hPa NW 8.1 mph /  13 km/h 8.1 mph /  13 km/h 48 % 0.00 in /  0 mm
20:37 52.0 °F /  11.1 °C 32.9 °F /  0.5 °C 29.88 in /  1011.7 hPa NW 12.7 mph /  20.4 km/h 12.7 mph /  20.4 km/h 48 % 0.00 in /  0 mm
20:42 51.8 °F /  11 °C 33.2 °F /  0.7 °C 29.88 in /  1011.7 hPa WNW 8.1 mph /  13 km/h 8.1 mph /  13 km/h 49 % 0.00 in /  0 mm
20:47 51.7 °F /  10.9 °C 33.1 °F /  0.6 °C 29.89 in /  1012.1 hPa West 8.1 mph /  13 km/h 8.1 mph /  13 km/h 49 % 0.00 in /  0 mm
20:52 51.5 °F /  10.8 °C 33.0 °F /  0.6 °C 29.89 in /  1012.1 hPa WNW 9.2 mph /  14.8 km/h 9.2 mph /  14.8 km/h 49 % 0.00 in /  0 mm
20:57 51.3 °F /  10.7 °C 33.3 °F /  0.7 °C 29.89 in /  1012.1 hPa WNW 9.2 mph /  14.8 km/h 9.2 mph /  14.8 km/h 50 % 0.00 in /  0 mm
21:02 51.2 °F /  10.7 °C 32.7 °F /  0.4 °C 29.89 in /  1012.1 hPa NW 10.4 mph /  16.7 km/h 10.4 mph /  16.7 km/h 49 % 0.00 in /  0 mm
21:07 51.2 °F /  10.7 °C 32.7 °F /  0.4 °C 29.89 in /  1012.1 hPa WNW 12.7 mph /  20.4 km/h 12.7 mph /  20.4 km/h 49 % 0.00 in /  0 mm
21:12 51.1 °F /  10.6 °C 33.1 °F /  0.6 °C 29.90 in /  1012.4 hPa NNW 11.5 mph /  18.5 km/h 11.5 mph /  18.5 km/h 50 % 0.00 in /  0 mm
21:17 50.9 °F /  10.5 °C 32.9 °F /  0.5 °C 29.90 in /  1012.4 hPa NNE 9.2 mph /  14.8 km/h 9.2 mph /  14.8 km/h 50 % 0.00 in /  0 mm
21:22 50.7 °F /  10.4 °C 33.2 °F /  0.7 °C 29.90 in /  1012.4 hPa NW 12.7 mph /  20.4 km/h 12.7 mph /  20.4 km/h 51 % 0.00 in /  0 mm
21:27 50.5 °F /  10.3 °C 33.0 °F /  0.6 °C 29.90 in /  1012.4 hPa NW 11.5 mph /  18.5 km/h 11.5 mph /  18.5 km/h 51 % 0.00 in /  0 mm
21:32 50.3 °F /  10.2 °C 33.3 °F /  0.7 °C 29.90 in /  1012.4 hPa NNW 10.0 mph /  16.1 km/h 10.0 mph /  16.1 km/h 52 % 0.00 in /  0 mm
21:37 50.1 °F /  10.1 °C 33.1 °F /  0.6 °C 29.90 in /  1012.4 hPa North 10.4 mph /  16.7 km/h 10.4 mph /  16.7 km/h 52 % 0.00 in /  0 mm
21:42 49.9 °F /  9.9 °C 33.4 °F /  0.8 °C 29.90 in /  1012.4 hPa NE 4.6 mph /  7.4 km/h 4.6 mph /  7.4 km/h 53 % 0.00 in /  0 mm
21:47 49.7 °F /  9.8 °C 33.7 °F /  0.9 °C 29.91 in /  1012.8 hPa WNW 5.8 mph /  9.3 km/h 5.8 mph /  9.3 km/h 54 % 0.00 in /  0 mm
21:52 49.5 °F /  9.7 °C 33.5 °F /  0.8 °C 29.91 in /  1012.8 hPa NW 6.9 mph /  11.1 km/h 6.9 mph /  11.1 km/h 54 % 0.00 in /  0 mm
21:57 49.3 °F /  9.6 °C 33.8 °F /  1 °C 29.91 in /  1012.8 hPa NNW 6.9 mph /  11.1 km/h 6.9 mph /  11.1 km/h 55 % 0.00 in /  0 mm
22:02 49.2 °F /  9.6 °C 34.2 °F /  1.2 °C 29.91 in /  1012.8 hPa North 8.0 mph /  12.9 km/h 8.0 mph /  12.9 km/h 56 % 0.00 in /  0 mm
22:07 49.1 °F /  9.5 °C 34.1 °F /  1.2 °C 29.91 in /  1012.8 hPa NW 4.6 mph /  7.4 km/h 4.6 mph /  7.4 km/h 56 % 0.00 in /  0 mm
22:12 49.0 °F /  9.4 °C 34.4 °F /  1.3 °C 29.91 in /  1012.8 hPa NW 3.5 mph /  5.6 km/h 3.5 mph /  5.6 km/h 57 % 0.00 in /  0 mm
22:17 48.9 °F /  9.4 °C 34.8 °F /  1.6 °C 29.91 in /  1012.8 hPa NW 3.5 mph /  5.6 km/h 3.5 mph /  5.6 km/h 58 % 0.00 in /  0 mm
22:22 48.7 °F /  9.3 °C 34.6 °F /  1.4 °C 29.91 in /  1012.8 hPa WNW 5.0 mph /  8 km/h 5.0 mph /  8 km/h 58 % 0.00 in /  0 mm
22:27 48.5 °F /  9.2 °C 34.4 °F /  1.3 °C 29.91 in /  1012.8 hPa NW 4.6 mph /  7.4 km/h 4.6 mph /  7.4 km/h 58 % 0.00 in /  0 mm
22:32 48.3 °F /  9.1 °C 34.2 °F /  1.2 °C 29.91 in /  1012.8 hPa NW 4.0 mph /  6.4 km/h 4.0 mph /  6.4 km/h 58 % 0.00 in /  0 mm
22:37 48.2 °F /  9 °C 34.1 °F /  1.2 °C 29.92 in /  1013.1 hPa WNW 6.9 mph /  11.1 km/h 6.9 mph /  11.1 km/h 58 % 0.00 in /  0 mm
22:42 48.1 °F /  8.9 °C 34.4 °F /  1.3 °C 29.92 in /  1013.1 hPa WNW 3.5 mph /  5.6 km/h 3.5 mph /  5.6 km/h 59 % 0.00 in /  0 mm
22:47 48.0 °F /  8.9 °C 34.3 °F /  1.3 °C 29.92 in /  1013.1 hPa WNW 4.6 mph /  7.4 km/h 4.6 mph /  7.4 km/h 59 % 0.00 in /  0 mm
22:52 47.8 °F /  8.8 °C 34.6 °F /  1.4 °C 29.92 in /  1013.1 hPa NNW 3.5 mph /  5.6 km/h 3.5 mph /  5.6 km/h 60 % 0.00 in /  0 mm
22:57 47.6 °F /  8.7 °C 34.4 °F /  1.3 °C 29.92 in /  1013.1 hPa NNW 5.8 mph /  9.3 km/h 5.8 mph /  9.3 km/h 60 % 0.00 in /  0 mm
23:02 47.5 °F /  8.6 °C 34.3 °F /  1.3 °C 29.92 in /  1013.1 hPa NW 5.8 mph /  9.3 km/h 5.8 mph /  9.3 km/h 60 % 0.00 in /  0 mm
23:07 47.5 °F /  8.6 °C 34.3 °F /  1.3 °C 29.92 in /  1013.1 hPa NW 4.6 mph /  7.4 km/h 4.6 mph /  7.4 km/h 60 % 0.00 in /  0 mm
23:12 47.4 °F /  8.6 °C 34.2 °F /  1.2 °C 29.92 in /  1013.1 hPa NW 3.5 mph /  5.6 km/h 3.9 mph /  6.3 km/h 60 % 0.00 in /  0 mm
23:17 47.3 °F /  8.5 °C 34.1 °F /  1.2 °C 29.93 in /  1013.4 hPa NW 6.9 mph /  11.1 km/h 6.9 mph /  11.1 km/h 60 % 0.00 in /  0 mm
23:23 47.2 °F /  8.4 °C 34.0 °F /  1.1 °C 29.92 in /  1013.1 hPa NW 8.1 mph /  13 km/h 8.1 mph /  13 km/h 60 % 0.00 in /  0 mm
23:28 47.2 °F /  8.4 °C 34.4 °F /  1.3 °C 29.93 in /  1013.4 hPa WNW 4.6 mph /  7.4 km/h 4.6 mph /  7.4 km/h 61 % 0.00 in /  0 mm
23:33 47.0 °F /  8.3 °C 33.8 °F /  1 °C 29.93 in /  1013.4 hPa WNW 8.1 mph /  13 km/h 8.1 mph /  13 km/h 60 % 0.00 in /  0 mm
23:38 46.9 °F /  8.3 °C 33.7 °F /  0.9 °C 29.93 in /  1013.4 hPa NW 3.5 mph /  5.6 km/h 3.5 mph /  5.6 km/h 60 % 0.00 in /  0 mm
23:43 46.6 °F /  8.1 °C 33.9 °F /  1.1 °C 29.93 in /  1013.4 hPa NW 8.1 mph /  13 km/h 8.1 mph /  13 km/h 61 % 0.00 in /  0 mm
23:48 46.4 °F /  8 °C 33.7 °F /  0.9 °C 29.93 in /  1013.4 hPa NW 4.6 mph /  7.4 km/h 4.6 mph /  7.4 km/h 61 % 0.00 in /  0 mm
23:53 46.1 °F /  7.8 °C 33.8 °F /  1 °C 29.93 in /  1013.4 hPa West 5.0 mph /  8 km/h 5.0 mph /  8 km/h 62 % 0.00 in /  0 mm
23:58 46.0 °F /  7.8 °C 33.3 °F /  0.7 °C 29.93 in /  1013.4 hPa WNW 5.8 mph /  9.3 km/h 5.8 mph /  9.3 km/h 61 % 0.00 in /  0 mm
Park Place, Exeter, Tulare County, California, USA
Compliments of Weather Underground - 2.75 mb